Time;durP1;ratioP1;P1;durP2;ratioP2;P2;SDS_P1;SDS_P2;PMS_P1;PMS_P2;Temp;Humidity;BMP_temperature;BMP_pressure;BME280_temperature;BME280_humidity;BME280_pressure;Samples;Min_cycle;Max_cycle;Signal;HPM_P1;HPM_P2
2022/03/09 00:02:23;;;;;;;10.00;7.00;;;0.30;79.80;;;;;;6135146;23;20661;-88
2022/03/09 00:04:49;;;;;;;11.47;6.77;;;0.30;79.40;;;;;;6133077;23;20163;-86
2022/03/09 00:07:14;;;;;;;16.80;7.60;;;0.40;80.00;;;;;;6134923;23;20214;-86
2022/03/09 00:09:40;;;;;;;9.90;6.17;;;0.40;80.10;;;;;;6130742;23;20160;-87
2022/03/09 00:12:06;;;;;;;12.60;6.10;;;0.40;80.00;;;;;;6132572;23;20539;-87
2022/03/09 00:14:32;;;;;;;11.03;7.00;;;0.30;80.70;;;;;;6131319;23;20164;-86
2022/03/09 00:16:58;;;;;;;11.40;6.37;;;0.30;80.50;;;;;;6131312;23;20699;-87
2022/03/09 00:19:24;;;;;;;8.87;6.17;;;0.30;80.40;;;;;;6132028;23;20394;-86
2022/03/09 00:21:50;;;;;;;8.07;6.03;;;0.30;80.40;;;;;;6127314;23;20196;-86
2022/03/09 00:24:18;;;;;;;7.40;5.93;;;0.30;81.20;;;;;;6131447;23;20403;-86
2022/03/09 00:26:44;;;;;;;9.20;6.13;;;0.30;81.80;;;;;;6130929;23;20428;-86
2022/03/09 00:29:11;;;;;;;8.97;6.77;;;0.30;82.10;;;;;;6133616;23;20442;-87
2022/03/09 00:31:37;;;;;;;8.83;6.47;;;0.20;82.20;;;;;;6134074;23;20267;-86
2022/03/09 00:34:05;;;;;;;7.57;5.60;;;0.20;82.60;;;;;;6136325;23;20482;-88
2022/03/09 00:36:30;;;;;;;9.50;5.97;;;0.30;82.30;;;;;;6131229;23;20160;-88
2022/03/09 00:38:56;;;;;;;8.87;5.60;;;0.10;82.50;;;;;;6131803;23;20894;-88
2022/03/09 00:41:24;;;;;;;9.47;6.97;;;0.10;82.80;;;;;;6130339;23;20376;-87
2022/03/09 00:43:50;;;;;;;7.97;5.60;;;0.20;82.90;;;;;;6130859;23;20190;-87
2022/03/09 00:46:15;;;;;;;9.07;5.70;;;0.20;83.20;;;;;;6130745;23;20384;-87
2022/03/09 00:48:41;;;;;;;8.27;5.63;;;0.20;83.00;;;;;;6132600;23;20650;-88
2022/03/09 00:51:07;;;;;;;8.90;5.93;;;0.10;83.40;;;;;;6134777;23;20607;-86
2022/03/09 00:53:32;;;;;;;8.47;5.70;;;0.00;83.70;;;;;;6132434;23;20372;-87
2022/03/09 00:55:58;;;;;;;7.63;5.60;;;-0.10;84.50;;;;;;6132502;23;20410;-88
2022/03/09 00:58:24;;;;;;;7.17;5.30;;;-0.10;84.60;;;;;;6129621;23;20164;-88
2022/03/09 01:00:51;;;;;;;7.20;5.43;;;-0.10;85.40;;;;;;6127791;23;20160;-88
2022/03/09 01:03:17;;;;;;;10.43;5.40;;;-0.10;85.60;;;;;;6128279;23;20203;-88
2022/03/09 01:05:43;;;;;;;9.03;5.80;;;-0.10;85.90;;;;;;6125264;23;20392;-88
2022/03/09 01:08:09;;;;;;;7.33;5.10;;;-0.20;86.20;;;;;;6130690;23;20694;-88
2022/03/09 01:10:43;;;;;;;10.17;5.77;;;-0.30;86.40;;;;;;6133267;23;20400;-87
2022/03/09 01:13:08;;;;;;;9.60;5.70;;;-0.40;86.90;;;;;;6135813;23;20392;-87
2022/03/09 01:15:34;;;;;;;8.47;6.00;;;-0.60;88.30;;;;;;6134741;23;20909;-88
2022/03/09 01:17:59;;;;;;;7.70;5.93;;;-0.70;89.00;;;;;;6131746;23;20171;-87
2022/03/09 01:20:25;;;;;;;7.03;5.50;;;-0.60;89.00;;;;;;6129626;23;20160;-87
2022/03/09 01:22:53;;;;;;;6.50;4.37;;;-0.60;89.00;;;;;;6129849;23;20618;-87
2022/03/09 01:25:19;;;;;;;7.23;4.60;;;-0.50;89.80;;;;;;6125780;23;20547;-87
2022/03/09 01:28:01;;;;;;;6.00;4.50;;;-0.50;90.00;;;;;;6127871;23;20403;-87
2022/03/09 01:30:26;;;;;;;8.40;5.50;;;-0.50;89.90;;;;;;6129354;23;20383;-86
2022/03/09 01:32:54;;;;;;;6.80;4.33;;;-0.60;89.90;;;;;;6128929;23;20396;-87
2022/03/09 01:35:20;;;;;;;8.23;5.03;;;-0.60;90.30;;;;;;6129949;23;20735;-87
2022/03/09 01:37:46;;;;;;;8.43;5.90;;;-0.40;89.20;;;;;;6130875;23;20501;-87
2022/03/09 01:40:12;;;;;;;11.43;6.77;;;-0.40;88.50;;;;;;6125303;23;20592;-87
2022/03/09 01:42:38;;;;;;;11.07;7.00;;;-0.40;89.00;;;;;;6129160;23;20933;-88
2022/03/09 01:45:06;;;;;;;10.17;7.10;;;-0.50;88.40;;;;;;6128280;23;20419;-88
2022/03/09 01:47:32;;;;;;;9.67;6.83;;;-0.60;88.70;;;;;;6125914;23;20781;-88
2022/03/09 01:49:58;;;;;;;12.60;9.20;;;-0.60;88.80;;;;;;6124179;23;20391;-87
2022/03/09 01:52:24;;;;;;;10.03;6.43;;;-0.50;89.40;;;;;;6130395;23;21078;-88
2022/03/09 01:54:53;;;;;;;12.30;7.77;;;-0.60;89.20;;;;;;6160289;23;20168;-89
2022/03/09 01:57:22;;;;;;;11.50;7.50;;;-0.60;89.20;;;;;;6134380;23;20941;-88
2022/03/09 01:59:49;;;;;;;15.23;8.40;;;-0.60;89.10;;;;;;6127786;23;20717;-88
2022/03/09 02:02:15;;;;;;;10.30;7.60;;;-0.50;88.80;;;;;;6125264;23;20506;-88
2022/03/09 02:04:41;;;;;;;13.57;7.90;;;-0.40;88.70;;;;;;6129340;23;20399;-87
2022/03/09 02:07:11;;;;;;;11.50;7.70;;;-0.60;89.20;;;;;;6135732;23;20393;-88
2022/03/09 02:09:46;;;;;;;11.53;7.67;;;-0.60;89.30;;;;;;6133724;23;20586;-88
2022/03/09 02:12:18;;;;;;;13.30;7.57;;;-0.60;89.90;;;;;;6126720;23;20699;-88
2022/03/09 02:14:49;;;;;;;13.27;8.37;;;-0.60;89.10;;;;;;6130836;23;20446;-87
2022/03/09 02:17:19;;;;;;;11.53;7.40;;;-0.60;90.00;;;;;;6159937;23;20375;-87
2022/03/09 02:19:47;;;;;;;10.63;7.40;;;-0.80;90.30;;;;;;6134837;23;20885;-87
2022/03/09 02:22:14;;;;;;;10.70;7.67;;;-0.80;90.50;;;;;;6161883;23;20415;-87
2022/03/09 02:24:40;;;;;;;12.33;7.60;;;-0.90;90.50;;;;;;6137361;23;20855;-87
2022/03/09 02:27:11;;;;;;;11.30;7.50;;;-0.80;90.40;;;;;;6131897;23;20810;-87
2022/03/09 02:29:39;;;;;;;10.90;7.53;;;-1.00;91.00;;;;;;6128871;23;20954;-87
2022/03/09 02:32:06;;;;;;;11.07;7.40;;;-1.00;91.30;;;;;;6128092;23;20390;-87
2022/03/09 02:34:31;;;;;;;9.90;7.20;;;-0.80;91.20;;;;;;6124792;23;20161;-88
2022/03/09 02:36:57;;;;;;;15.50;8.60;;;-0.80;90.70;;;;;;6123138;23;20387;-88
2022/03/09 02:39:24;;;;;;;14.80;7.77;;;-0.80;90.80;;;;;;6126661;23;20453;-88
2022/03/09 02:42:00;;;;;;;11.80;7.17;;;-0.90;90.70;;;;;;6124840;23;20901;-87
2022/03/09 02:44:26;;;;;;;11.20;7.72;;;-1.10;90.30;;;;;;6128575;23;20430;-88
2022/03/09 02:46:54;;;;;;;7.63;6.03;;;-1.20;90.50;;;;;;6127325;23;20184;-87
2022/03/09 02:49:20;;;;;;;11.60;7.30;;;-1.20;90.80;;;;;;6128364;23;20164;-88
2022/03/09 02:51:45;;;;;;;13.80;8.00;;;-1.20;90.80;;;;;;6129466;23;20164;-88
2022/03/09 02:54:11;;;;;;;12.57;6.80;;;-1.30;91.20;;;;;;6132718;23;20239;-88
2022/03/09 02:56:36;;;;;;;12.20;7.70;;;-1.30;91.60;;;;;;6131181;23;20160;-88
2022/03/09 02:59:05;;;;;;;12.40;7.00;;;-1.30;91.70;;;;;;6127042;23;20207;-88
2022/03/09 03:01:48;;;;;;;8.00;6.60;;;-1.30;91.90;;;;;;6153701;23;20656;-87
2022/03/09 03:04:14;;;;;;;9.20;7.27;;;-1.40;91.60;;;;;;6129841;23;20516;-88
2022/03/09 03:06:40;;;;;;;10.77;6.97;;;-1.40;91.90;;;;;;6130407;23;20442;-87
2022/03/09 03:09:05;;;;;;;10.03;7.20;;;-1.40;92.40;;;;;;6133207;23;20186;-87
2022/03/09 03:11:31;;;;;;;9.40;7.03;;;-1.30;91.90;;;;;;6131860;23;20484;-87
2022/03/09 03:13:56;;;;;;;10.63;7.50;;;-1.30;91.60;;;;;;6131038;23;20188;-86
2022/03/09 03:16:24;;;;;;;8.40;6.17;;;-1.30;91.60;;;;;;6130273;23;20156;-87
2022/03/09 03:18:50;;;;;;;11.60;7.53;;;-1.30;91.30;;;;;;6133644;23;20169;-87
2022/03/09 03:21:18;;;;;;;10.33;6.30;;;-1.50;91.40;;;;;;6132607;23;20156;-87
2022/03/09 03:23:43;;;;;;;9.07;7.05;;;-1.50;91.50;;;;;;6132966;23;20219;-88
2022/03/09 03:26:11;;;;;;;12.33;7.37;;;-1.50;91.70;;;;;;6135125;23;20196;-87
2022/03/09 03:28:37;;;;;;;9.63;6.80;;;-1.50;91.80;;;;;;6131644;23;20167;-87
2022/03/09 03:31:06;;;;;;;12.23;7.50;;;-1.60;92.00;;;;;;6131849;23;20412;-88
2022/03/09 03:33:34;;;;;;;11.20;7.25;;;-1.60;92.10;;;;;;6129446;23;20157;-87
2022/03/09 03:35:59;;;;;;;8.50;5.90;;;-1.50;92.30;;;;;;6132800;23;20195;-88
2022/03/09 03:38:28;;;;;;;11.40;7.30;;;-1.50;92.10;;;;;;6130841;23;20180;-87
2022/03/09 03:40:53;;;;;;;13.88;6.90;;;-1.40;91.80;;;;;;6133547;23;20153;-87
2022/03/09 03:43:19;;;;;;;9.87;7.67;;;-1.40;91.80;;;;;;6136698;23;20192;-88
2022/03/09 03:45:44;;;;;;;11.17;7.37;;;-1.50;91.70;;;;;;6134554;23;20631;-87
2022/03/09 03:48:10;;;;;;;9.50;6.70;;;-1.50;92.00;;;;;;6132104;23;20590;-87
2022/03/09 03:50:36;;;;;;;9.23;6.17;;;-1.60;92.20;;;;;;6132506;23;20630;-87
2022/03/09 03:53:02;;;;;;;9.83;7.27;;;-1.60;92.60;;;;;;6134078;23;20228;-87
2022/03/09 03:55:28;;;;;;;11.73;7.13;;;-1.60;92.60;;;;;;6135761;23;20706;-88
2022/03/09 03:57:53;;;;;;;9.30;7.00;;;-1.70;92.60;;;;;;6133763;23;20171;-87
2022/03/09 04:00:19;;;;;;;9.97;7.23;;;-1.70;92.80;;;;;;6129873;23;20609;-88
2022/03/09 04:03:09;;;;;;;11.30;6.80;;;-1.70;92.80;;;;;;6130949;23;20690;-88
2022/03/09 04:05:34;;;;;;;14.02;7.13;;;-1.60;92.80;;;;;;6131099;23;20538;-87
2022/03/09 04:08:00;;;;;;;12.13;7.73;;;-1.60;92.80;;;;;;6132302;23;20222;-87
2022/03/09 04:10:25;;;;;;;12.80;7.10;;;-1.70;92.90;;;;;;6130222;23;20164;-87
2022/03/09 04:12:51;;;;;;;11.47;7.23;;;-1.80;93.30;;;;;;6136531;23;20165;-87
2022/03/09 04:15:17;;;;;;;11.47;7.77;;;-1.80;93.60;;;;;;6132386;23;20226;-87
2022/03/09 04:17:44;;;;;;;9.87;7.37;;;-1.80;93.70;;;;;;6133939;23;20167;-87
2022/03/09 04:20:16;;;;;;;12.35;8.32;;;-1.80;93.70;;;;;;6133714;23;20156;-87
2022/03/09 04:22:45;;;;;;;10.38;8.15;;;-1.80;93.50;;;;;;6133420;23;20191;-88
2022/03/09 04:25:11;;;;;;;11.33;8.30;;;-1.80;93.80;;;;;;6132618;23;20538;-87
2022/03/09 04:27:38;;;;;;;11.93;7.20;;;-1.80;93.80;;;;;;6136994;23;20396;-88
2022/03/09 04:30:04;;;;;;;11.32;7.70;;;-1.80;93.90;;;;;;6131123;23;20165;-88
2022/03/09 04:32:31;;;;;;;8.88;6.95;;;-1.80;93.90;;;;;;6133352;23;20164;-88
2022/03/09 04:34:56;;;;;;;9.88;7.10;;;-1.70;93.80;;;;;;6131988;23;20504;-88
2022/03/09 04:37:22;;;;;;;8.43;5.90;;;-1.70;93.60;;;;;;6132672;23;20631;-87
2022/03/09 04:39:48;;;;;;;12.70;7.37;;;-1.80;93.70;;;;;;6133380;23;20562;-87
2022/03/09 04:42:14;;;;;;;13.40;7.70;;;-1.90;94.50;;;;;;6130637;23;20385;-87
2022/03/09 04:44:40;;;;;;;8.93;6.50;;;-2.00;94.70;;;;;;6130418;23;20164;-88
2022/03/09 04:47:05;;;;;;;10.13;7.13;;;-1.90;94.80;;;;;;6128514;23;20859;-88
2022/03/09 04:49:33;;;;;;;8.87;6.77;;;-1.90;94.70;;;;;;6129295;23;20392;-88
2022/03/09 04:51:58;;;;;;;9.48;6.30;;;-1.90;94.50;;;;;;6128980;23;20180;-88
2022/03/09 04:54:24;;;;;;;9.53;6.90;;;-1.90;94.60;;;;;;6129294;23;20171;-87
2022/03/09 04:57:20;;;;;;;8.50;6.50;;;-1.90;94.70;;;;;;6156020;23;20167;-87
2022/03/09 04:59:45;;;;;;;9.32;6.47;;;-1.90;94.70;;;;;;6130610;23;20565;-87
2022/03/09 05:02:25;;;;;;;11.70;7.63;;;-2.00;94.80;;;;;;6131370;23;20190;-87
2022/03/09 05:04:50;;;;;;;11.63;7.90;;;-2.00;95.10;;;;;;6128045;23;20665;-87
2022/03/09 05:07:16;;;;;;;9.80;6.63;;;-2.00;95.20;;;;;;6135873;23;20156;-86
2022/03/09 05:09:41;;;;;;;13.73;7.00;;;-2.00;95.20;;;;;;6127913;23;20167;-86
2022/03/09 05:12:07;;;;;;;10.20;7.30;;;-2.10;95.20;;;;;;6132069;23;20156;-87
2022/03/09 05:14:33;;;;;;;9.70;7.30;;;-2.10;95.80;;;;;;6133662;23;20163;-86
2022/03/09 05:16:58;;;;;;;9.07;6.33;;;-2.20;95.60;;;;;;6155246;23;20382;-86
2022/03/09 05:19:24;;;;;;;10.70;7.03;;;-2.20;95.70;;;;;;6125937;23;20184;-87
2022/03/09 05:21:50;;;;;;;14.37;7.83;;;-2.10;95.70;;;;;;6123508;23;20184;-87
2022/03/09 05:24:19;;;;;;;12.20;7.80;;;-2.10;95.50;;;;;;6130803;23;20423;-87
2022/03/09 05:26:46;;;;;;;12.20;8.02;;;-2.10;95.50;;;;;;6132871;23;20453;-87
2022/03/09 05:29:14;;;;;;;10.90;8.05;;;-2.20;95.80;;;;;;6133763;23;20295;-88
2022/03/09 05:31:44;;;;;;;12.32;8.15;;;-2.40;96.40;;;;;;6130694;23;20161;-89
2022/03/09 05:34:11;;;;;;;14.57;7.78;;;-2.30;96.50;;;;;;6128801;23;20471;-89
2022/03/09 05:36:50;;;;;;;9.70;7.30;;;-2.20;96.30;;;;;;6149225;23;20167;-89
2022/03/09 05:39:16;;;;;;;15.40;8.70;;;-2.20;96.30;;;;;;6126180;23;20165;-90
2022/03/09 05:41:41;;;;;;;13.60;7.87;;;-2.20;96.50;;;;;;6126104;23;20218;-88
2022/03/09 05:44:07;;;;;;;13.03;8.50;;;-2.20;96.50;;;;;;6129018;23;20168;-89
2022/03/09 05:46:45;;;;;;;13.30;9.03;;;-2.20;96.70;;;;;;6127150;23;20391;-89
2022/03/09 05:49:11;;;;;;;10.32;7.65;;;-2.20;96.90;;;;;;6125393;23;20512;-88
2022/03/09 05:51:36;;;;;;;11.50;7.40;;;-2.10;96.70;;;;;;6129456;23;20274;-87
2022/03/09 05:54:02;;;;;;;13.13;7.90;;;-2.10;96.30;;;;;;6155455;23;20237;-87
2022/03/09 05:56:28;;;;;;;12.90;8.77;;;-2.00;96.30;;;;;;6130616;23;20685;-86
2022/03/09 05:58:54;;;;;;;12.37;8.37;;;-2.00;96.10;;;;;;6130195;23;20167;-88
2022/03/09 06:01:23;;;;;;;19.43;10.97;;;-1.90;95.90;;;;;;6131729;23;20444;-89
2022/03/09 06:03:49;;;;;;;20.38;13.20;;;-1.90;95.80;;;;;;6129887;23;20196;-88
2022/03/09 06:06:15;;;;;;;23.65;12.15;;;-2.00;96.00;;;;;;6127123;23;20210;-89
2022/03/09 06:08:40;;;;;;;17.40;11.10;;;-2.20;96.70;;;;;;6127034;23;20168;-89
2022/03/09 06:11:06;;;;;;;19.57;11.60;;;-2.10;97.00;;;;;;6130775;23;20156;-89
2022/03/09 06:13:32;;;;;;;20.00;10.90;;;-2.00;96.80;;;;;;6133130;23;20236;-89
2022/03/09 06:15:57;;;;;;;23.17;10.50;;;-1.80;96.20;;;;;;6129559;23;20334;-89
2022/03/09 06:18:23;;;;;;;21.83;12.20;;;-1.80;95.90;;;;;;6127060;23;20160;-89
2022/03/09 06:20:48;;;;;;;26.00;13.30;;;-1.80;96.00;;;;;;6125493;23;20612;-89
2022/03/09 06:23:14;;;;;;;20.10;12.90;;;-1.70;96.00;;;;;;6123962;23;20192;-87
2022/03/09 06:25:42;;;;;;;20.13;12.27;;;-1.60;95.80;;;;;;6126498;23;20384;-88
2022/03/09 06:28:08;;;;;;;27.88;11.15;;;-1.60;95.50;;;;;;6132272;23;20217;-88
2022/03/09 06:30:36;;;;;;;18.97;10.13;;;-1.60;95.50;;;;;;6134039;23;20575;-88
2022/03/09 06:33:08;;;;;;;18.65;11.75;;;-1.50;95.40;;;;;;6133253;23;20160;-88
2022/03/09 06:35:43;;;;;;;17.50;11.23;;;-1.40;95.30;;;;;;6131480;23;20541;-89
2022/03/09 06:38:49;;;;;;;18.80;12.13;;;-1.40;95.20;;;;;;6131935;23;20160;-90
2022/03/09 06:41:43;;;;;;;13.50;9.25;;;-1.30;95.20;;;;;;6131006;23;20678;-89
2022/03/09 06:44:25;;;;;;;11.88;8.40;;;-1.30;94.90;;;;;;6158043;23;20538;-88
2022/03/09 06:46:51;;;;;;;12.10;8.80;;;-1.20;95.00;;;;;;6131956;23;20240;-90
2022/03/09 06:49:21;;;;;;;11.60;7.87;;;-1.40;95.00;;;;;;6132726;23;20164;-92
2022/03/09 06:51:47;;;;;;;10.73;7.30;;;-1.40;95.10;;;;;;6133094;23;20546;-89
2022/03/09 06:54:12;;;;;;;14.13;8.40;;;-1.50;95.00;;;;;;6129150;23;20166;-89
2022/03/09 06:56:43;;;;;;;10.77;8.10;;;-1.60;95.20;;;;;;6133423;23;20182;-89
2022/03/09 06:59:09;;;;;;;10.55;7.40;;;-1.60;95.70;;;;;;6133106;23;20459;-87
2022/03/09 07:01:36;;;;;;;11.23;7.97;;;-1.60;95.70;;;;;;6132540;23;20153;-87
2022/03/09 07:04:05;;;;;;;15.95;8.77;;;-1.50;95.90;;;;;;6131570;23;20592;-88
2022/03/09 07:06:46;;;;;;;33.80;24.33;;;-1.30;95.60;;;;;;6135078;23;20168;-89
2022/03/09 07:09:12;;;;;;;14.52;9.15;;;-1.20;95.80;;;;;;6135935;23;20156;-86
2022/03/09 07:11:38;;;;;;;13.23;9.30;;;-1.10;95.60;;;;;;6134475;23;20642;-84
2022/03/09 07:14:07;;;;;;;15.90;9.45;;;-1.10;95.10;;;;;;6128953;23;20414;-85
2022/03/09 07:16:33;;;;;;;13.15;8.73;;;-0.90;95.20;;;;;;6133550;23;20161;-86
2022/03/09 07:18:59;;;;;;;18.92;10.23;;;-0.80;95.00;;;;;;6127084;23;20160;-85
2022/03/09 07:21:24;;;;;;;19.90;10.27;;;-0.60;94.40;;;;;;6132566;23;20625;-85
2022/03/09 07:23:50;;;;;;;18.23;10.20;;;-0.40;93.80;;;;;;6134760;23;20197;-88
2022/03/09 07:26:15;;;;;;;15.03;10.10;;;-0.20;93.50;;;;;;6134941;23;20594;-85
2022/03/09 07:28:41;;;;;;;17.67;8.90;;;0.00;93.00;;;;;;6133319;23;20190;-86
2022/03/09 07:31:06;;;;;;;13.73;9.73;;;0.10;92.70;;;;;;6138835;23;20195;-85
2022/03/09 07:33:32;;;;;;;17.07;10.57;;;0.20;92.10;;;;;;6143521;23;20595;-86
2022/03/09 07:36:00;;;;;;;15.50;11.23;;;0.30;91.90;;;;;;6137405;23;20170;-86
2022/03/09 07:38:26;;;;;;;15.43;9.97;;;0.60;91.60;;;;;;6133885;23;20156;-87
2022/03/09 07:40:52;;;;;;;13.70;10.10;;;0.80;91.60;;;;;;6137236;23;20427;-89
2022/03/09 07:43:18;;;;;;;14.70;10.10;;;0.90;91.50;;;;;;6133541;23;20467;-88
2022/03/09 07:45:43;;;;;;;14.80;9.87;;;1.20;90.00;;;;;;6136393;23;20156;-87
2022/03/09 07:48:09;;;;;;;14.10;9.83;;;1.30;89.80;;;;;;6146844;23;20867;-87
2022/03/09 07:50:34;;;;;;;14.90;9.43;;;1.50;89.00;;;;;;6139211;23;20160;-88
2022/03/09 07:53:01;;;;;;;12.70;9.30;;;1.70;90.20;;;;;;6128977;23;20171;-89
2022/03/09 07:55:27;;;;;;;14.00;9.93;;;2.00;90.10;;;;;;6131502;23;20204;-86
2022/03/09 07:57:52;;;;;;;13.40;10.00;;;2.20;87.90;;;;;;6129421;23;20476;-86
2022/03/09 08:00:18;;;;;;;12.10;9.80;;;2.50;86.90;;;;;;6126166;23;20207;-85
2022/03/09 08:02:44;;;;;;;13.40;10.40;;;2.40;88.00;;;;;;6131246;23;20192;-85
2022/03/09 08:05:10;;;;;;;12.93;9.50;;;2.30;89.00;;;;;;6130221;23;20536;-88
2022/03/09 08:07:35;;;;;;;12.50;8.70;;;2.30;88.70;;;;;;6131334;23;20707;-87
2022/03/09 08:10:11;;;;;;;12.53;9.60;;;2.30;89.00;;;;;;6134399;23;20483;-88
2022/03/09 08:12:37;;;;;;;17.00;10.83;;;2.30;87.70;;;;;;6138376;23;20159;-89
2022/03/09 08:15:04;;;;;;;14.97;11.37;;;2.50;86.20;;;;;;6136434;23;20400;-92
2022/03/09 08:17:30;;;;;;;15.30;11.23;;;2.30;86.80;;;;;;6140305;23;20384;-89
2022/03/09 08:19:55;;;;;;;16.70;10.47;;;2.40;86.50;;;;;;6136172;23;20513;-88
2022/03/09 08:22:22;;;;;;;13.93;11.17;;;2.70;86.50;;;;;;6130995;23;20271;-89
2022/03/09 08:24:50;;;;;;;17.00;11.13;;;2.80;85.10;;;;;;6131637;23;20171;-89
2022/03/09 08:27:18;;;;;;;15.77;11.60;;;2.90;84.50;;;;;;6132666;23;20376;-88
2022/03/09 08:29:45;;;;;;;17.40;12.23;;;3.00;85.10;;;;;;6135687;23;20746;-88
2022/03/09 08:32:11;;;;;;;13.43;11.10;;;3.00;83.70;;;;;;6135315;23;20817;-88
2022/03/09 08:34:37;;;;;;;12.60;9.80;;;3.00;83.80;;;;;;6135780;23;20519;-89
2022/03/09 08:37:08;;;;;;;14.60;10.03;;;3.00;83.80;;;;;;6137091;23;20164;-89
2022/03/09 08:39:33;;;;;;;14.50;10.30;;;3.10;83.50;;;;;;6135865;23;20639;-89
2022/03/09 08:42:00;;;;;;;14.50;10.33;;;3.30;83.40;;;;;;6135133;23;20493;-88
2022/03/09 08:44:27;;;;;;;13.20;9.87;;;3.40;82.90;;;;;;6132027;23;20167;-88
2022/03/09 08:46:59;;;;;;;14.67;9.57;;;3.70;82.40;;;;;;6134145;23;20396;-89
2022/03/09 08:49:33;;;;;;;15.13;10.27;;;4.00;82.10;;;;;;6111248;23;20407;-89
2022/03/09 08:52:19;;;;;;;13.47;9.30;;;3.90;81.90;;;;;;6137373;23;20450;-89
2022/03/09 08:54:45;;;;;;;15.43;11.00;;;4.00;82.10;;;;;;6135250;23;20427;-89
2022/03/09 08:57:13;;;;;;;15.47;9.90;;;3.90;82.50;;;;;;6135248;23;20516;-89
2022/03/09 08:59:44;;;;;;;14.67;9.97;;;4.00;81.70;;;;;;6132797;23;20152;-88
2022/03/09 09:02:10;;;;;;;14.77;9.40;;;4.10;81.00;;;;;;6131258;23;20533;-87
2022/03/09 09:04:36;;;;;;;12.90;9.47;;;4.20;80.10;;;;;;6134499;23;21247;-89
2022/03/09 09:07:06;;;;;;;13.47;9.90;;;4.30;79.30;;;;;;6132250;23;20615;-88
2022/03/09 09:09:32;;;;;;;14.40;10.23;;;4.40;79.50;;;;;;6134693;23;20162;-86
2022/03/09 09:12:01;;;;;;;14.37;10.00;;;4.70;81.20;;;;;;6133535;23;20390;-89
2022/03/09 09:14:28;;;;;;;9.90;8.73;;;5.00;76.90;;;;;;6135901;23;20661;-89
2022/03/09 09:16:54;;;;;;;10.60;8.20;;;5.10;75.40;;;;;;6136437;23;20430;-88
2022/03/09 09:19:20;;;;;;;13.20;9.43;;;5.30;73.70;;;;;;6134334;23;20846;-88
2022/03/09 09:21:47;;;;;;;12.00;9.33;;;5.70;73.80;;;;;;6136141;23;20419;-88
2022/03/09 09:24:13;;;;;;;13.63;10.00;;;5.90;73.10;;;;;;6134986;23;20404;-89
2022/03/09 09:26:39;;;;;;;13.47;9.27;;;6.00;72.10;;;;;;6111862;23;20758;-88
2022/03/09 09:29:06;;;;;;;10.77;9.67;;;6.30;70.30;;;;;;6134617;23;20857;-89
2022/03/09 09:31:32;;;;;;;13.13;10.20;;;6.40;69.30;;;;;;6134389;23;20471;-87
2022/03/09 09:33:57;;;;;;;13.00;9.70;;;6.40;69.00;;;;;;6134259;23;20507;-87
2022/03/09 09:36:23;;;;;;;10.73;8.77;;;6.30;68.20;;;;;;6133557;23;20180;-87
2022/03/09 09:38:49;;;;;;;15.00;9.70;;;6.40;67.30;;;;;;6131985;23;20158;-88
2022/03/09 09:41:19;;;;;;;10.40;9.27;;;6.60;67.20;;;;;;6133638;23;20553;-88
2022/03/09 09:43:45;;;;;;;15.50;10.43;;;6.90;67.20;;;;;;6131701;23;20197;-88
2022/03/09 09:46:15;;;;;;;11.30;9.73;;;7.40;67.30;;;;;;6113010;23;20506;-88
2022/03/09 09:48:43;;;;;;;13.63;11.10;;;7.80;66.50;;;;;;6134745;23;20514;-88
2022/03/09 09:51:16;;;;;;;13.77;10.40;;;8.10;65.60;;;;;;6134317;23;20392;-88
2022/03/09 09:53:51;;;;;;;14.30;10.47;;;8.20;64.80;;;;;;6132475;23;20900;-88
2022/03/09 09:56:17;;;;;;;14.67;11.20;;;7.80;61.20;;;;;;6123004;23;20700;-89
2022/03/09 09:58:44;;;;;;;13.83;10.60;;;7.70;65.00;;;;;;6129386;23;20895;-89
2022/03/09 10:01:11;;;;;;;15.70;10.63;;;7.90;62.60;;;;;;6153643;23;20382;-88
2022/03/09 10:03:37;;;;;;;13.77;9.70;;;8.10;62.40;;;;;;6122691;23;20435;-87
2022/03/09 10:06:03;;;;;;;12.77;10.30;;;8.30;61.20;;;;;;6126803;23;20828;-88
2022/03/09 10:08:29;;;;;;;14.20;10.40;;;8.20;59.60;;;;;;6127498;23;20517;-88
2022/03/09 10:11:01;;;;;;;14.27;11.00;;;8.60;60.70;;;;;;6125757;23;20891;-88
2022/03/09 10:13:32;;;;;;;14.00;11.57;;;8.90;59.40;;;;;;6129306;23;20186;-88
2022/03/09 10:16:18;;;;;;;15.33;11.43;;;8.90;60.70;;;;;;6126053;23;20875;-88
2022/03/09 10:18:48;;;;;;;14.00;10.87;;;9.30;58.50;;;;;;6130202;23;20427;-88
2022/03/09 10:21:17;;;;;;;15.33;11.93;;;9.70;61.50;;;;;;6127890;23;20827;-87
2022/03/09 10:23:56;;;;;;;15.30;12.00;;;10.00;56.80;;;;;;6127225;23;20472;-88
2022/03/09 10:26:44;;;;;;;15.53;12.20;;;10.20;55.30;;;;;;6127231;23;20417;-88
2022/03/09 10:29:14;;;;;;;15.77;12.50;;;10.50;52.90;;;;;;6129964;23;20841;-87
2022/03/09 10:31:49;;;;;;;15.73;11.33;;;10.60;58.20;;;;;;6135444;23;20470;-88
2022/03/09 10:34:24;;;;;;;13.53;11.80;;;10.90;53.90;;;;;;6139661;23;20404;-88
2022/03/09 10:37:00;;;;;;;14.57;11.50;;;11.00;51.60;;;;;;6135257;23;20866;-87
2022/03/09 10:39:31;;;;;;;15.50;12.40;;;11.20;52.10;;;;;;6132061;23;20429;-87
2022/03/09 10:41:58;;;;;;;13.53;11.37;;;11.50;54.30;;;;;;6133980;23;20396;-88
2022/03/09 10:44:54;;;;;;;18.80;11.13;;;11.70;54.50;;;;;;6132904;23;20439;-88
2022/03/09 10:47:35;;;;;;;13.60;12.10;;;11.70;52.40;;;;;;6169201;23;20889;-87
2022/03/09 10:50:14;;;;;;;16.20;12.20;;;11.70;52.80;;;;;;6141695;23;20477;-90
2022/03/09 10:53:00;;;;;;;14.87;11.90;;;11.70;56.60;;;;;;6134831;23;20978;-90
2022/03/09 10:55:31;;;;;;;15.33;13.07;;;11.70;56.00;;;;;;6132453;23;20442;-90
2022/03/09 10:58:18;;;;;;;14.10;12.13;;;12.00;53.70;;;;;;6133445;23;20391;-89
2022/03/09 11:00:45;;;;;;;17.27;12.40;;;12.60;54.60;;;;;;6133214;23;20399;-89
2022/03/09 11:03:24;;;;;;;15.07;11.90;;;12.70;52.40;;;;;;6132082;23;21057;-89
2022/03/09 11:05:58;;;;;;;15.60;13.50;;;12.80;51.80;;;;;;6130173;23;20406;-89
2022/03/09 11:08:28;;;;;;;16.20;13.37;;;13.00;51.20;;;;;;6107479;23;20438;-88
2022/03/09 11:10:55;;;;;;;17.23;12.53;;;12.70;48.50;;;;;;6135625;23;20490;-89
2022/03/09 11:13:22;;;;;;;14.90;12.50;;;12.50;49.60;;;;;;6134769;23;20398;-89
2022/03/09 11:15:48;;;;;;;16.23;11.70;;;12.70;49.60;;;;;;6133037;23;20404;-89
2022/03/09 11:18:19;;;;;;;14.63;11.80;;;12.90;48.90;;;;;;6131794;23;20563;-89
2022/03/09 11:20:57;;;;;;;14.60;12.53;;;13.50;48.40;;;;;;6131429;23;20851;-89
2022/03/09 11:23:52;;;;;;;16.83;14.20;;;13.60;47.00;;;;;;6133506;23;20501;-90
2022/03/09 11:26:27;;;;;;;19.20;14.03;;;13.40;45.70;;;;;;6135066;23;20392;-89
2022/03/09 11:29:09;;;;;;;15.50;13.83;;;13.50;47.90;;;;;;6161422;23;20442;-89
2022/03/09 11:31:51;;;;;;;15.20;12.50;;;13.90;48.10;;;;;;6133285;23;20396;-89
2022/03/09 11:34:38;;;;;;;15.70;12.70;;;13.40;47.50;;;;;;6126177;23;20434;-90
2022/03/09 11:37:06;;;;;;;17.70;13.43;;;13.80;46.90;;;;;;6127166;23;20812;-90
2022/03/09 11:39:33;;;;;;;15.33;13.43;;;13.60;45.60;;;;;;6128604;23;20436;-90
2022/03/09 11:42:33;;;;;;;;;;;;;;;;;;;;;
2022/03/09 11:45:15;;;;;;;17.13;13.33;;;13.80;46.50;;;;;;6131429;23;20400;-90
2022/03/09 11:48:01;;;;;;;15.30;13.70;;;13.60;44.70;;;;;;6127016;23;20410;-89
2022/03/09 11:50:28;;;;;;;15.83;12.80;;;13.80;45.60;;;;;;6126475;23;20395;-89
2022/03/09 11:53:10;;;;;;;14.97;12.20;;;13.90;47.70;;;;;;6128264;23;20418;-91
2022/03/09 11:55:36;;;;;;;15.20;12.93;;;14.20;45.80;;;;;;6130444;23;20403;-89
2022/03/09 11:58:07;;;;;;;17.60;13.43;;;14.20;44.40;;;;;;6126813;23;20399;-90
2022/03/09 12:00:45;;;;;;;15.13;13.10;;;14.30;42.30;;;;;;6153247;23;20232;-90
2022/03/09 12:03:40;;;;;;;14.50;12.63;;;14.40;41.30;;;;;;6128046;23;20927;-89
2022/03/09 12:06:42;;;;;;;13.70;12.03;;;14.00;41.00;;;;;;6154621;23;20550;-89
2022/03/09 12:09:09;;;;;;;17.37;13.43;;;13.40;42.10;;;;;;6102459;23;20403;-89
2022/03/09 12:12:05;;;;;;;16.63;13.20;;;13.60;41.30;;;;;;6127618;23;20494;-88
2022/03/09 12:14:58;;;;;;;14.17;12.20;;;13.60;40.80;;;;;;6126223;23;20391;-89
2022/03/09 12:17:52;;;;;;;19.67;13.60;;;14.40;40.80;;;;;;6152289;23;20388;-90
2022/03/09 12:20:28;;;;;;;16.33;12.03;;;14.70;42.70;;;;;;6125229;23;20396;-90
2022/03/09 12:22:56;;;;;;;15.40;13.27;;;15.30;40.60;;;;;;6126370;23;20442;-89
2022/03/09 12:25:37;;;;;;;16.87;13.60;;;15.40;38.10;;;;;;6127870;23;20729;-89
2022/03/09 12:28:28;;;;;;;14.67;12.73;;;15.80;40.10;;;;;;6129292;23;20407;-89
2022/03/09 12:30:58;;;;;;;13.70;12.30;;;15.80;38.80;;;;;;6130598;23;20431;-89
2022/03/09 12:33:33;;;;;;;15.40;12.63;;;16.10;39.30;;;;;;6129422;23;20422;-89
2022/03/09 12:36:09;;;;;;;15.30;12.70;;;16.00;36.40;;;;;;6126980;23;20783;-89
2022/03/09 12:38:40;;;;;;;14.83;12.60;;;16.00;38.50;;;;;;6129286;23;20418;-89
2022/03/09 12:41:25;;;;;;;15.07;12.70;;;15.60;38.80;;;;;;6128136;23;20971;-89
2022/03/09 12:43:53;;;;;;;16.03;13.67;;;15.20;38.00;;;;;;6128248;23;20517;-90
2022/03/09 12:46:19;;;;;;;16.10;12.40;;;14.80;37.50;;;;;;6154305;23;20890;-89
2022/03/09 12:48:47;;;;;;;15.40;12.23;;;14.90;36.40;;;;;;6129130;23;20401;-90
2022/03/09 12:51:18;;;;;;;16.00;13.17;;;15.30;39.70;;;;;;6128350;23;20427;-89